createdAt,value
2023-08-04T02:36:56.239Z,78428.94
2023-08-04T02:39:26.398Z,78452.66
2023-08-04T02:42:02.349Z,78442.91
2023-08-04T02:44:33.255Z,78416.00
2023-08-04T02:47:03.493Z,78455.75
2023-08-04T02:49:34.406Z,78437.13
2023-08-04T02:52:04.345Z,78451.97
2023-08-04T02:54:35.510Z,78458.00
2023-08-04T02:57:04.874Z,78436.13
2023-08-04T02:59:34.633Z,78462.09
2023-08-04T03:02:03.714Z,78441.38
2023-08-04T03:04:32.778Z,78463.00
2023-08-04T03:07:01.972Z,78468.28
2023-08-04T03:09:31.667Z,78469.31
2023-08-04T03:12:00.551Z,78481.78
2023-08-04T03:14:32.650Z,78479.59
2023-08-04T03:17:03.461Z,78483.28
2023-08-04T03:19:32.565Z,78481.59
2023-08-04T03:22:01.537Z,78485.00
2023-08-04T03:24:32.447Z,78480.84
2023-08-04T03:27:04.358Z,78463.50
2023-08-04T03:29:33.394Z,78499.44
2023-08-04T03:32:02.620Z,78490.88
2023-08-04T03:34:31.684Z,78481.91
2023-08-04T03:37:00.871Z,78497.69
2023-08-04T03:39:31.221Z,78455.25
2023-08-04T03:42:00.540Z,78484.78
2023-08-04T03:44:37.372Z,78469.19
2023-08-04T03:47:07.101Z,78507.19
2023-08-04T03:49:36.333Z,78453.81
2023-08-04T03:52:05.830Z,78512.72
2023-08-04T03:54:34.888Z,78491.69
2023-08-04T03:57:04.673Z,78488.97
2023-08-04T03:59:33.541Z,78509.69
2023-08-04T04:02:02.697Z,78475.00
2023-08-04T04:04:31.766Z,78503.63
2023-08-04T04:07:00.759Z,78499.19
2023-08-04T04:09:32.109Z,78483.59
2023-08-04T04:12:01.109Z,78511.00
2023-08-04T04:14:30.170Z,78500.31
2023-08-04T04:16:59.183Z,78512.28
2023-08-04T04:19:28.378Z,78518.41
2023-08-04T04:22:00.032Z,78524.75
2023-08-04T04:24:29.402Z,78532.47
2023-08-04T04:27:01.313Z,78532.00
2023-08-04T04:29:30.764Z,78518.16
2023-08-04T04:31:59.812Z,78528.91
2023-08-04T04:34:29.537Z,78514.41
2023-08-04T04:37:00.815Z,78536.31
2023-08-04T04:39:33.013Z,78541.22
2023-08-04T04:42:02.172Z,78544.84
2023-08-04T04:44:32.004Z,78518.31
2023-08-04T04:47:01.839Z,78519.56
2023-08-04T04:49:31.806Z,78543.47
2023-08-04T04:52:00.909Z,78542.03
2023-08-04T04:54:29.981Z,78536.44
2023-08-04T04:56:59.010Z,78534.31
2023-08-04T04:59:29.073Z,78535.06
2023-08-04T05:01:58.440Z,78533.97
2023-08-04T05:04:27.505Z,78545.22
2023-08-04T05:06:56.460Z,78542.84
2023-08-04T05:09:25.500Z,78529.34
2023-08-04T05:11:54.812Z,78553.91
2023-08-04T05:14:24.735Z,78534.34
2023-08-04T05:16:54.285Z,78531.31
2023-08-04T05:19:23.610Z,78540.06
2023-08-04T05:21:52.603Z,78534.84
2023-08-04T05:24:21.566Z,78550.47
2023-08-04T05:26:50.750Z,78554.91
2023-08-04T05:29:19.764Z,78518.22
2023-08-04T05:31:49.672Z,78547.41
2023-08-04T05:34:18.963Z,78543.44
2023-08-04T05:36:48.000Z,78547.81
2023-08-04T05:39:16.988Z,78557.78
2023-08-04T05:41:47.522Z,78555.84
2023-08-04T05:44:16.762Z,78543.78
2023-08-04T05:46:45.813Z,78563.28
2023-08-04T05:49:14.810Z,78540.56
2023-08-04T05:51:43.740Z,78562.03
2023-08-04T05:54:12.716Z,78543.03
2023-08-04T05:56:41.947Z,78529.16
2023-08-04T05:59:29.372Z,78544.28
2023-08-04T06:01:59.173Z,78558.50
2023-08-04T06:04:28.167Z,78557.81
2023-08-04T06:06:59.419Z,78553.56
2023-08-04T06:09:28.442Z,78557.81
2023-08-04T06:11:57.516Z,78543.56
2023-08-04T06:14:26.631Z,78561.31
2023-08-04T06:16:56.398Z,78532.16
2023-08-04T06:19:43.502Z,78528.22
2023-08-04T06:22:15.503Z,78537.84
2023-08-04T06:24:44.763Z,78571.75
2023-08-04T06:27:14.136Z,78542.59
2023-08-04T06:29:43.061Z,78558.78
2023-08-04T06:32:12.798Z,78537.69
2023-08-04T06:34:42.611Z,78555.81
2023-08-04T06:37:11.622Z,78550.94
2023-08-04T06:39:40.485Z,78547.59
2023-08-04T06:42:09.585Z,78556.78
2023-08-04T06:44:39.125Z,78561.63
2023-08-04T06:47:08.395Z,78530.63
2023-08-04T06:49:38.060Z,78550.09
2023-08-04T06:52:07.659Z,78508.34
2023-08-04T06:54:37.397Z,78519.41
2023-08-04T06:57:07.600Z,78531.25
2023-08-04T06:59:55.436Z,78527.28
2023-08-04T07:02:44.314Z,78525.47
2023-08-04T07:05:13.990Z,78515.69
2023-08-04T07:07:43.059Z,78464.75
2023-08-04T07:10:12.958Z,78514.16
2023-08-04T07:12:41.936Z,78522.22
2023-08-04T07:15:11.238Z,78530.66
2023-08-04T07:17:40.669Z,78522.34
2023-08-04T07:20:11.141Z,78511.03
2023-08-04T07:22:40.386Z,78499.97
2023-08-04T07:25:09.952Z,78538.09
2023-08-04T07:27:39.053Z,78524.22
2023-08-04T07:30:13.270Z,78528.34
2023-08-04T07:32:44.881Z,78534.38
2023-08-04T07:35:13.909Z,78529.22
2023-08-04T07:37:46.777Z,78536.47
2023-08-04T07:40:15.989Z,78529.34
2023-08-04T07:42:45.418Z,78529.34
2023-08-04T07:45:14.519Z,78509.34
2023-08-04T07:47:43.704Z,78530.56
2023-08-04T07:50:13.057Z,78527.03
2023-08-04T07:52:42.016Z,78521.09
2023-08-04T07:55:12.840Z,78523.63
2023-08-04T07:57:41.952Z,78530.53
2023-08-04T08:00:12.105Z,78484.97
2023-08-04T08:02:41.101Z,78522.75
2023-08-04T08:05:10.546Z,78513.75
2023-08-04T08:07:45.514Z,78522.47
2023-08-04T08:10:17.065Z,78509.25
2023-08-04T08:12:46.454Z,78503.69
2023-08-04T08:15:15.535Z,78513.94
2023-08-04T08:17:44.800Z,78507.78
2023-08-04T08:23:17.406Z,78486.50
2023-08-04T08:25:49.099Z,78475.13
2023-08-04T08:28:18.096Z,78496.53
2023-08-04T08:30:47.222Z,78482.97
2023-08-04T08:33:16.356Z,78487.38
2023-08-04T08:35:45.394Z,78485.78
2023-08-04T08:38:14.451Z,78480.94
2023-08-04T08:41:01.687Z,78455.19
2023-08-04T08:43:32.373Z,78476.31
2023-08-04T08:46:01.527Z,78469.09
2023-08-04T08:48:37.137Z,78481.81
2023-08-04T08:51:22.312Z,78499.31
2023-08-04T08:53:52.165Z,78491.56
2023-08-04T08:56:22.181Z,78476.78
2023-08-04T08:58:51.425Z,78450.22
2023-08-04T09:01:21.710Z,78481.13
2023-08-04T09:03:50.788Z,78493.75
2023-08-04T09:06:22.374Z,78478.72
2023-08-04T09:08:52.500Z,78452.50
2023-08-04T09:11:22.265Z,78459.66
2023-08-04T09:13:51.844Z,78474.84
2023-08-04T09:16:38.554Z,78441.75
2023-08-04T09:19:09.656Z,78453.19
2023-08-04T09:21:39.631Z,78454.63
2023-08-04T09:24:12.640Z,78471.66
2023-08-04T09:26:46.028Z,78469.69
2023-08-04T09:29:16.601Z,78462.06
2023-08-04T09:31:50.877Z,78466.38
2023-08-04T09:34:20.812Z,78494.19
2023-08-04T09:36:53.408Z,78473.81
2023-08-04T09:39:26.580Z,78475.34
2023-08-04T09:41:57.009Z,78485.00
2023-08-04T09:44:42.773Z,78477.59
2023-08-04T09:47:12.732Z,78469.41
2023-08-04T09:49:42.635Z,78446.38
2023-08-04T09:52:12.452Z,78450.88
2023-08-04T09:54:41.605Z,78486.50
2023-08-04T09:57:11.632Z,78489.63
2023-08-04T09:59:42.586Z,78476.56
2023-08-04T10:02:12.790Z,78476.09
2023-08-04T10:04:43.848Z,78443.31
2023-08-04T10:07:13.448Z,78476.47
2023-08-04T10:09:43.476Z,78503.63
2023-08-04T10:12:15.307Z,78504.41
2023-08-04T10:14:45.627Z,78489.69
2023-08-04T10:17:15.897Z,78487.88
2023-08-04T10:19:45.241Z,78485.56
2023-08-04T10:22:15.907Z,78470.09
2023-08-04T10:24:45.206Z,78495.56
2023-08-04T10:27:24.316Z,78507.25
2023-08-04T10:30:15.592Z,78493.63
2023-08-04T10:32:46.048Z,78481.47
2023-08-04T10:35:33.668Z,78498.78
2023-08-04T10:38:05.346Z,78490.34
2023-08-04T10:40:35.837Z,78495.75
2023-08-04T10:43:10.738Z,78486.34
2023-08-04T10:46:04.986Z,78459.94
2023-08-04T10:48:38.698Z,78494.47
2023-08-04T10:51:08.791Z,78501.50
2023-08-04T10:53:38.408Z,78496.09
2023-08-04T10:56:09.409Z,78499.69
2023-08-04T10:58:40.742Z,78495.47
2023-08-04T11:01:09.883Z,78495.75
2023-08-04T11:03:39.296Z,78506.66
2023-08-04T11:06:09.416Z,78508.91
2023-08-04T11:08:38.620Z,78509.31
2023-08-04T11:11:09.045Z,78501.22
2023-08-04T11:13:42.089Z,78497.44
2023-08-04T11:16:11.329Z,78474.28
2023-08-04T11:18:42.244Z,78488.78
2023-08-04T11:21:11.691Z,78486.59
2023-08-04T11:23:40.739Z,78494.16
2023-08-04T11:26:11.643Z,78492.19
2023-08-04T11:28:40.803Z,78497.44
2023-08-04T11:31:11.674Z,78501.31
2023-08-04T11:33:48.944Z,78494.75
2023-08-04T11:36:41.447Z,78504.72
2023-08-04T11:39:13.071Z,78494.63
2023-08-04T11:41:46.516Z,78489.84
2023-08-04T11:44:18.408Z,78508.66
2023-08-04T11:46:47.939Z,78505.81
2023-08-04T11:49:17.740Z,78506.56
2023-08-04T11:51:48.135Z,78519.47
2023-08-04T11:54:29.112Z,78522.28
2023-08-04T11:57:01.454Z,78516.38
2023-08-04T11:59:32.088Z,78495.09
2023-08-04T12:02:12.887Z,78520.50
2023-08-04T12:04:42.489Z,78515.09
2023-08-04T12:07:12.826Z,78522.66
2023-08-04T12:09:47.165Z,78521.41
2023-08-04T12:12:18.186Z,78488.84
2023-08-04T12:15:01.565Z,78509.47
2023-08-04T12:17:45.608Z,78501.84
2023-08-04T12:20:33.947Z,78489.84
2023-08-04T12:23:15.937Z,78495.16
2023-08-04T12:25:44.962Z,78497.50
2023-08-04T12:28:14.339Z,78495.41
2023-08-04T12:30:43.365Z,78495.28
2023-08-04T12:33:19.339Z,78505.41
2023-08-04T12:35:48.602Z,78505.69
2023-08-04T12:38:18.768Z,78508.94
2023-08-04T12:40:50.180Z,78497.19
2023-08-04T12:43:19.171Z,78514.28
2023-08-04T12:45:49.530Z,78504.22
2023-08-04T12:48:19.654Z,78480.66
2023-08-04T12:50:48.782Z,78522.13
2023-08-04T12:53:17.988Z,78523.34
2023-08-04T12:55:48.145Z,78526.69
2023-08-04T12:58:17.198Z,78530.38
2023-08-04T13:00:46.293Z,78520.63
2023-08-04T13:03:15.595Z,78513.28
2023-08-04T13:05:44.763Z,78533.63
2023-08-04T13:08:13.963Z,78528.06
2023-08-04T13:10:43.288Z,78533.19
2023-08-04T13:13:12.558Z,78535.00
2023-08-04T13:15:49.403Z,78541.34
2023-08-04T13:18:19.514Z,78539.19
2023-08-04T13:20:49.467Z,78526.69
2023-08-04T13:23:19.003Z,78539.66
2023-08-04T13:25:49.171Z,78441.25
2023-08-04T13:28:18.145Z,78506.19
2023-08-04T13:30:47.513Z,78516.03
2023-08-04T13:33:16.725Z,78534.47
